Current | Forecast
Updated: 12:00 PM +09 on March 29, 2017
Observed at Yakutsk, Russia
Temperature 28°F
Windchill 20°F
Humidity 37%
Dew Point 5°F
Wind WNW at 9 mph
Pressure 30.15 in (Steady)
Conditions Clear
Visibility -
UV N/A
Clouds
Yesterday's Maximum 36°F
Yesterday's Minimum 12°F approx.
Yesterday's Heating Degree Days 41 approx.
Sunrise5:56 AM +09
Sunset7:01 PM +09
Moon Rise6:44 AM +09
Moon Set8:32 PM +09
Moon PhaseMoon Phase
New Moon
Raw METARMETAR UEEE 290300Z 29004MPS CAVOK M02/M15 Q1021 R23L/09//55 NOSIG RMK QFE757


Monday
. High: 48° F.
Tuesday
. High: 53° F.
Wednesday
. High: 53° F.
Thursday
. High: 55° F.
Friday
. High: 55° F.
Saturday
. High: 64° F.
Sunday
. High: 59° F.
Monday
. High: 59° F.

Units: English | Metric

Find the Weather for any City, State or Zipcode, or Country:

U.S. State List | Severe Weather | Tropical Storms | Ski Conditions
United States | Canada | Central America | South America | Asia | Europe | Australia | Africa | Islands

Weather Underground

© Copyright 2017
The Weather Company, LLC